createdAt,value
2018-11-05T00:00:50.134Z,33.70
2018-11-05T00:03:55.524Z,35.07
2018-11-05T00:07:00.897Z,35.30
2018-11-05T00:10:06.586Z,33.03
2018-11-05T00:13:12.116Z,35.60
2018-11-05T00:16:17.551Z,33.37
2018-11-05T00:19:23.438Z,34.93
2018-11-05T00:22:28.939Z,36.43
2018-11-05T00:25:34.326Z,34.47
2018-11-05T00:28:39.906Z,34.70
2018-11-05T00:31:45.385Z,33.53
2018-11-05T00:34:50.786Z,35.70
2018-11-05T00:37:56.322Z,33.90
2018-11-05T00:41:01.829Z,32.50
2018-11-05T00:44:07.838Z,32.90
2018-11-05T00:47:13.275Z,32.43
2018-11-05T00:50:20.928Z,35.93
2018-11-05T00:53:26.365Z,33.23
2018-11-05T00:56:31.746Z,33.10
2018-11-05T00:59:37.150Z,34.30
2018-11-05T01:02:42.810Z,31.80
2018-11-05T01:05:48.206Z,32.93
2018-11-05T01:08:53.589Z,32.83
2018-11-05T01:11:59.086Z,33.00
2018-11-05T01:15:04.529Z,32.20
2018-11-05T01:18:09.959Z,33.47
2018-11-05T01:21:15.425Z,32.50
2018-11-05T01:24:20.803Z,32.23
2018-11-05T01:27:26.181Z,32.27
2018-11-05T01:30:31.574Z,35.27
2018-11-05T01:33:37.016Z,33.83
2018-11-05T01:36:42.401Z,32.93
2018-11-05T01:39:47.777Z,34.97
2018-11-05T01:42:53.239Z,32.57
2018-11-05T01:45:58.626Z,32.93
2018-11-05T01:49:04.051Z,31.23
2018-11-05T01:52:10.213Z,32.70
2018-11-05T01:55:15.641Z,32.87
2018-11-05T01:58:21.042Z,31.90
2018-11-05T02:01:26.582Z,33.60
2018-11-05T02:04:31.983Z,32.10
2018-11-05T02:07:37.362Z,32.03
2018-11-05T02:10:42.747Z,31.60
2018-11-05T02:13:48.243Z,30.73
2018-11-05T02:16:53.654Z,33.57
2018-11-05T02:19:59.082Z,33.40
2018-11-05T02:23:05.067Z,33.83
2018-11-05T02:26:10.851Z,32.27
2018-11-05T02:29:16.214Z,33.53
2018-11-05T02:32:21.765Z,32.17
2018-11-05T02:35:27.403Z,33.60
2018-11-05T02:38:32.806Z,31.67
2018-11-05T02:41:38.487Z,34.63
2018-11-05T02:44:43.889Z,34.97
2018-11-05T02:47:49.458Z,33.00
2018-11-05T02:50:54.906Z,32.67
2018-11-05T02:54:00.314Z,33.10
2018-11-05T02:57:05.947Z,31.27
2018-11-05T03:00:19.924Z,34.13
2018-11-05T03:03:25.476Z,32.53
2018-11-05T03:06:31.014Z,32.10
2018-11-05T03:09:36.493Z,33.30
2018-11-05T03:12:42.542Z,33.60
2018-11-05T03:15:47.971Z,34.90
2018-11-05T03:18:53.372Z,31.97
2018-11-05T03:21:59.482Z,33.40
2018-11-05T03:25:05.526Z,32.67
2018-11-05T03:28:10.913Z,33.07
2018-11-05T03:31:16.398Z,32.23
2018-11-05T03:34:22.300Z,32.70
2018-11-05T03:37:28.082Z,30.80
2018-11-05T03:40:33.479Z,32.97
2018-11-05T03:43:38.966Z,32.37
2018-11-05T03:46:45.238Z,32.67
2018-11-05T03:49:50.732Z,30.37
2018-11-05T03:52:56.779Z,31.20
2018-11-05T03:56:02.300Z,30.20
2018-11-05T03:59:07.974Z,34.17
2018-11-05T04:02:13.570Z,31.03
2018-11-05T04:05:18.994Z,30.47
2018-11-05T04:08:24.378Z,30.30
2018-11-05T04:11:30.552Z,30.37
2018-11-05T04:14:36.000Z,30.03
2018-11-05T04:17:41.687Z,30.47
2018-11-05T04:20:47.102Z,30.50
2018-11-05T04:23:52.576Z,30.87
2018-11-05T04:26:57.998Z,30.93
2018-11-05T04:30:03.444Z,29.67
2018-11-05T04:33:08.946Z,29.97
2018-11-05T04:36:14.373Z,29.00
2018-11-05T04:39:19.770Z,30.00
2018-11-05T04:42:25.299Z,30.97
2018-11-05T04:45:30.699Z,29.60
2018-11-05T04:48:36.114Z,31.47
2018-11-05T04:51:41.919Z,29.37
2018-11-05T04:54:47.313Z,31.40
2018-11-05T04:57:52.721Z,30.53
2018-11-05T05:00:58.250Z,30.57
2018-11-05T05:04:03.642Z,31.50
2018-11-05T05:07:09.155Z,30.33
2018-11-05T05:10:14.554Z,32.97
2018-11-05T05:13:20.073Z,31.67
2018-11-05T05:16:25.616Z,32.67
2018-11-05T05:19:31.098Z,31.63
2018-11-05T05:22:36.793Z,33.13
2018-11-05T05:25:42.270Z,32.90
2018-11-05T05:28:49.781Z,32.40
2018-11-05T05:31:55.226Z,34.53
2018-11-05T05:35:00.611Z,35.37
2018-11-05T05:38:06.906Z,33.97
2018-11-05T05:41:12.507Z,32.90
2018-11-05T05:44:18.045Z,34.27
2018-11-05T05:47:23.909Z,33.40
2018-11-05T05:50:29.307Z,31.73
2018-11-05T05:53:34.791Z,33.07
2018-11-05T05:56:40.635Z,33.00
2018-11-05T05:59:48.154Z,32.37
2018-11-05T06:02:53.794Z,31.60
2018-11-05T06:05:59.239Z,33.67
2018-11-05T06:09:07.114Z,31.13
2018-11-05T06:12:12.592Z,29.57
2018-11-05T06:15:18.227Z,30.47
2018-11-05T06:18:23.886Z,32.03
2018-11-05T06:21:29.353Z,33.33
2018-11-05T06:24:34.771Z,32.50
2018-11-05T06:27:40.212Z,32.13
2018-11-05T06:30:45.651Z,30.53
2018-11-05T06:33:51.149Z,34.10
2018-11-05T06:36:56.575Z,34.83
2018-11-05T06:40:01.960Z,32.37
2018-11-05T06:43:07.605Z,33.40
2018-11-05T06:46:13.729Z,30.03
2018-11-05T06:49:19.911Z,32.77
2018-11-05T06:52:25.366Z,32.20
2018-11-05T06:55:30.907Z,31.53
2018-11-05T06:58:36.318Z,31.57
2018-11-05T07:01:41.806Z,32.07
2018-11-05T07:04:47.289Z,29.97
2018-11-05T07:07:53.010Z,32.17
2018-11-05T07:10:58.443Z,32.53
2018-11-05T07:14:06.796Z,32.63
2018-11-05T07:17:12.514Z,32.03
2018-11-05T07:20:19.177Z,32.07
2018-11-05T07:23:24.681Z,32.53
2018-11-05T07:26:30.226Z,33.70
2018-11-05T07:29:36.550Z,31.27
2018-11-05T07:32:43.107Z,32.57
2018-11-05T07:35:48.600Z,32.43
2018-11-05T07:38:54.694Z,32.33
2018-11-05T07:42:00.120Z,32.30
2018-11-05T07:45:07.649Z,32.03
2018-11-05T07:48:13.061Z,32.60
2018-11-05T07:51:18.538Z,31.43
2018-11-05T07:54:23.957Z,29.67
2018-11-05T07:57:29.439Z,31.47
2018-11-05T08:00:39.999Z,31.63
2018-11-05T08:03:45.458Z,32.70
2018-11-05T08:06:51.280Z,31.33
2018-11-05T08:09:56.669Z,32.13
2018-11-05T08:13:02.083Z,31.77
2018-11-05T08:16:08.203Z,32.63
2018-11-05T08:19:13.608Z,31.70
2018-11-05T08:22:19.035Z,32.57
2018-11-05T08:25:24.474Z,32.43
2018-11-05T08:28:29.897Z,31.27
2018-11-05T08:31:35.457Z,32.13
2018-11-05T08:34:40.846Z,31.67
2018-11-05T08:37:47.221Z,30.77
2018-11-05T08:40:52.610Z,32.00
2018-11-05T08:43:57.994Z,30.97
2018-11-05T08:47:04.896Z,31.47
2018-11-05T08:50:13.190Z,30.87
2018-11-05T08:53:18.678Z,32.60
2018-11-05T08:56:24.059Z,31.40
2018-11-05T08:59:29.450Z,32.37
2018-11-05T09:02:35.760Z,31.00
2018-11-05T09:05:41.191Z,30.50
2018-11-05T09:08:46.942Z,30.57
2018-11-05T09:11:52.418Z,31.67
2018-11-05T09:14:58.018Z,31.00
2018-11-05T09:18:03.426Z,32.53
2018-11-05T09:21:08.841Z,31.97
2018-11-05T09:24:14.629Z,30.40
2018-11-05T09:27:20.182Z,30.30
2018-11-05T09:30:26.062Z,30.33
2018-11-05T09:33:31.498Z,28.90
2018-11-05T09:36:36.897Z,31.57
2018-11-05T09:39:42.251Z,30.90
2018-11-05T09:42:48.369Z,32.17
2018-11-05T09:45:53.909Z,30.43
2018-11-05T09:48:59.265Z,31.53
2018-11-05T09:52:04.782Z,28.67
2018-11-05T09:55:11.731Z,30.63
2018-11-05T09:58:17.091Z,29.13
2018-11-05T10:01:22.554Z,28.70
2018-11-05T10:04:28.005Z,29.97
2018-11-05T10:07:33.625Z,30.80
2018-11-05T10:10:39.038Z,30.50
2018-11-05T10:13:44.457Z,28.27
2018-11-05T10:16:49.848Z,29.70
2018-11-05T10:19:55.235Z,30.03
2018-11-05T10:23:00.634Z,30.73
2018-11-05T10:26:06.403Z,30.10
2018-11-05T10:29:11.957Z,31.67
2018-11-05T10:32:17.350Z,29.80
2018-11-05T10:35:27.939Z,31.03
2018-11-05T10:38:35.499Z,29.30
2018-11-05T10:41:41.050Z,28.70
2018-11-05T10:44:46.474Z,28.87
2018-11-05T10:47:51.923Z,30.33
2018-11-05T10:50:57.365Z,28.40
2018-11-05T10:54:02.743Z,30.07
2018-11-05T10:57:08.269Z,29.80
2018-11-05T11:00:23.767Z,29.30
2018-11-05T11:03:34.192Z,29.20
2018-11-05T11:06:39.739Z,27.07
2018-11-05T11:09:45.575Z,28.40
2018-11-05T11:12:52.304Z,28.67
2018-11-05T11:19:30.509Z,29.50
2018-11-05T11:22:36.006Z,27.57
2018-11-05T11:25:41.830Z,28.47
2018-11-05T11:28:47.440Z,28.10
2018-11-05T11:31:52.966Z,28.43
2018-11-05T11:34:59.170Z,30.70
2018-11-05T11:38:04.955Z,29.83
2018-11-05T11:41:10.435Z,30.47
2018-11-05T11:44:15.916Z,31.10
2018-11-05T11:47:21.473Z,30.97
2018-11-05T11:50:27.073Z,31.37
2018-11-05T11:53:32.555Z,30.87
2018-11-05T11:56:38.331Z,30.93
2018-11-05T11:59:43.889Z,30.90
2018-11-05T12:02:50.217Z,30.80
2018-11-05T12:05:55.696Z,30.50
2018-11-05T12:09:01.078Z,32.57
2018-11-05T12:12:07.998Z,30.47
2018-11-05T12:15:15.321Z,30.33
2018-11-05T12:18:20.698Z,30.00
2018-11-05T12:21:26.077Z,30.60
2018-11-05T12:24:31.697Z,30.03
2018-11-05T12:27:37.495Z,31.80
2018-11-05T12:30:42.929Z,32.60
2018-11-05T12:33:48.466Z,33.10
2018-11-05T12:36:53.830Z,31.13
2018-11-05T12:39:59.193Z,33.13
2018-11-05T12:43:04.607Z,30.30
2018-11-05T12:46:10.334Z,33.67
2018-11-05T12:49:17.866Z,34.87
2018-11-05T12:52:23.326Z,33.60
2018-11-05T12:55:28.773Z,33.30
2018-11-05T12:58:34.393Z,34.87
2018-11-05T13:01:40.279Z,34.63
2018-11-05T13:04:45.649Z,33.70
2018-11-05T13:07:51.068Z,34.80
2018-11-05T13:10:56.443Z,34.33
2018-11-05T13:14:01.833Z,33.83
2018-11-05T13:17:07.215Z,36.80
2018-11-05T13:20:16.699Z,36.60
2018-11-05T13:23:27.840Z,36.77
2018-11-05T13:26:33.194Z,36.13
2018-11-05T13:29:38.761Z,35.67
2018-11-05T13:32:44.798Z,34.90
2018-11-05T13:35:50.178Z,36.73
2018-11-05T13:38:55.591Z,36.53
2018-11-05T13:42:01.062Z,39.40
2018-11-05T13:45:08.305Z,37.60
2018-11-05T13:48:14.218Z,39.07
2018-11-05T13:51:20.462Z,36.77
2018-11-05T13:54:25.968Z,38.17
2018-11-05T13:57:31.576Z,37.27
2018-11-05T14:00:37.225Z,39.33
2018-11-05T14:03:42.626Z,38.13
2018-11-05T14:06:48.215Z,41.07
2018-11-05T14:09:53.721Z,37.17
2018-11-05T14:12:59.090Z,38.80
2018-11-05T14:16:04.882Z,39.20
2018-11-05T14:19:10.302Z,37.57
2018-11-05T14:22:15.670Z,39.20
2018-11-05T14:25:21.706Z,37.80
2018-11-05T14:28:27.422Z,38.43
2018-11-05T14:31:33.150Z,40.97
2018-11-05T14:34:38.550Z,38.30
2018-11-05T14:37:43.941Z,38.70
2018-11-05T14:40:49.326Z,39.90
2018-11-05T14:43:54.702Z,42.07
2018-11-05T14:47:00.098Z,41.07
2018-11-05T14:50:07.445Z,41.43
2018-11-05T14:53:12.819Z,43.07
2018-11-05T14:56:18.229Z,41.97
2018-11-05T14:59:23.654Z,42.57
2018-11-05T15:02:34.156Z,39.87
2018-11-05T15:05:39.734Z,42.13
2018-11-05T15:08:45.141Z,42.07
2018-11-05T15:11:50.538Z,42.03
2018-11-05T15:14:55.941Z,42.53
2018-11-05T15:18:02.655Z,40.47
2018-11-05T15:21:08.847Z,41.53
2018-11-05T15:24:14.433Z,42.07
2018-11-05T15:27:19.827Z,43.30
2018-11-05T15:30:25.228Z,41.27
2018-11-05T15:33:30.714Z,42.37
2018-11-05T15:36:36.318Z,42.17
2018-11-05T15:39:41.699Z,41.00
2018-11-05T15:42:47.429Z,41.83
2018-11-05T15:45:52.802Z,42.00
2018-11-05T15:48:58.377Z,40.00
2018-11-05T15:52:04.054Z,41.67
2018-11-05T15:55:09.598Z,39.87
2018-11-05T15:58:14.949Z,41.03
2018-11-05T16:01:20.482Z,39.40
2018-11-05T16:04:26.686Z,40.00
2018-11-05T16:07:32.210Z,41.13
2018-11-05T16:10:37.607Z,41.73
2018-11-05T16:13:43.346Z,40.23
2018-11-05T16:16:48.713Z,42.17
2018-11-05T16:19:54.902Z,43.37
2018-11-05T16:23:00.291Z,41.30
2018-11-05T16:26:06.141Z,39.97
2018-11-05T16:29:11.514Z,41.87
2018-11-05T16:32:17.029Z,42.43
2018-11-05T16:35:22.631Z,40.80
2018-11-05T16:38:28.289Z,41.17
2018-11-05T16:41:33.899Z,42.30
2018-11-05T16:44:39.835Z,42.80
2018-11-05T16:47:45.633Z,43.63
2018-11-05T16:50:51.186Z,42.83
2018-11-05T16:53:56.634Z,44.73
2018-11-05T16:57:02.189Z,43.33
2018-11-05T17:00:08.347Z,43.80
2018-11-05T17:03:13.848Z,43.40
2018-11-05T17:06:19.430Z,43.83
2018-11-05T17:09:24.856Z,43.60
2018-11-05T17:12:31.266Z,42.43
2018-11-05T17:15:36.635Z,44.80
2018-11-05T17:18:42.074Z,46.07
2018-11-05T17:21:47.545Z,44.07
2018-11-05T17:24:53.016Z,43.10
2018-11-05T17:27:58.446Z,46.10
2018-11-05T17:31:03.920Z,46.50
2018-11-05T17:34:09.335Z,47.53
2018-11-05T17:37:14.902Z,42.70
2018-11-05T17:40:21.700Z,44.87
2018-11-05T17:43:27.218Z,43.37
2018-11-05T17:46:32.649Z,44.60
2018-11-05T17:49:38.030Z,43.20
2018-11-05T17:52:44.236Z,41.57
2018-11-05T17:55:49.586Z,46.57
2018-11-05T17:58:55.003Z,44.80
2018-11-05T18:02:00.433Z,43.53
2018-11-05T18:05:06.509Z,43.87
2018-11-05T18:08:11.882Z,45.47
2018-11-05T18:11:17.277Z,42.80
2018-11-05T18:14:22.674Z,44.30
2018-11-05T18:17:28.108Z,43.13
2018-11-05T18:20:33.618Z,45.90
2018-11-05T18:23:39.062Z,44.10
2018-11-05T18:26:44.456Z,43.30
2018-11-05T18:29:49.874Z,45.10
2018-11-05T18:32:55.266Z,43.87
2018-11-05T18:36:00.651Z,45.07
2018-11-05T18:39:09.943Z,45.83
2018-11-05T18:42:27.162Z,46.23
2018-11-05T18:45:32.621Z,45.77
2018-11-05T18:48:38.210Z,42.53
2018-11-05T18:51:43.585Z,44.60
2018-11-05T18:54:49.238Z,45.73
2018-11-05T18:57:54.821Z,46.87
2018-11-05T19:01:00.262Z,44.50
2018-11-05T19:04:06.384Z,46.50
2018-11-05T19:07:11.750Z,45.30
2018-11-05T19:10:17.671Z,43.67
2018-11-05T19:13:23.070Z,45.20
2018-11-05T19:16:28.469Z,46.03
2018-11-05T19:19:33.875Z,45.37
2018-11-05T19:22:41.395Z,45.50
2018-11-05T19:25:46.974Z,47.73
2018-11-05T19:28:52.337Z,44.97
2018-11-05T19:31:57.716Z,44.80
2018-11-05T19:35:03.118Z,43.80
2018-11-05T19:38:08.815Z,44.37
2018-11-05T19:41:14.198Z,46.00
2018-11-05T19:44:20.358Z,45.07
2018-11-05T19:47:25.736Z,43.87
2018-11-05T19:50:31.141Z,45.47
2018-11-05T19:53:36.580Z,43.93
2018-11-05T19:56:42.138Z,43.17
2018-11-05T19:59:47.873Z,44.87
2018-11-05T20:02:54.370Z,45.03
2018-11-05T20:05:59.824Z,43.47
2018-11-05T20:09:07.379Z,41.57
2018-11-05T20:12:12.805Z,42.10
2018-11-05T20:15:18.301Z,42.43
2018-11-05T20:18:23.748Z,41.87
2018-11-05T20:21:29.298Z,40.80
2018-11-05T20:24:34.681Z,42.63
2018-11-05T20:27:40.725Z,41.63
2018-11-05T20:30:46.135Z,41.47
2018-11-05T20:33:51.674Z,43.63
2018-11-05T20:36:57.090Z,41.73
2018-11-05T20:40:02.664Z,40.23
2018-11-05T20:43:07.855Z,42.27
2018-11-05T20:46:13.283Z,40.47
2018-11-05T20:49:18.753Z,43.13
2018-11-05T20:52:24.220Z,39.33
2018-11-05T20:55:29.598Z,39.43
2018-11-05T20:58:35.015Z,40.50
2018-11-05T21:01:43.716Z,41.53
2018-11-05T21:05:00.940Z,39.80
2018-11-05T21:08:06.546Z,40.10
2018-11-05T21:11:11.970Z,40.60
2018-11-05T21:14:20.939Z,40.73
2018-11-05T21:17:37.881Z,40.63
2018-11-05T21:20:43.323Z,39.67
2018-11-05T21:23:48.862Z,40.20
2018-11-05T21:26:54.326Z,39.77
2018-11-05T21:29:59.897Z,41.53
2018-11-05T21:33:05.615Z,43.53
2018-11-05T21:36:11.718Z,41.23
2018-11-05T21:39:17.154Z,41.20
2018-11-05T21:42:22.641Z,41.13
2018-11-05T21:45:28.010Z,43.60
2018-11-05T21:48:33.387Z,39.97
2018-11-05T21:51:38.893Z,40.37
2018-11-05T21:54:44.758Z,41.50
2018-11-05T21:57:50.517Z,39.97
2018-11-05T22:00:55.902Z,42.43
2018-11-05T22:04:01.290Z,42.63
2018-11-05T22:07:07.678Z,38.87
2018-11-05T22:10:13.713Z,39.80
2018-11-05T22:13:19.154Z,39.33
2018-11-05T22:16:24.526Z,39.83
2018-11-05T22:19:29.943Z,39.47
2018-11-05T22:22:35.466Z,39.57
2018-11-05T22:25:41.008Z,38.07
2018-11-05T22:28:46.377Z,40.40
2018-11-05T22:31:51.842Z,37.10
2018-11-05T22:34:57.509Z,37.77
2018-11-05T22:38:03.788Z,38.90
2018-11-05T22:41:09.548Z,39.83
2018-11-05T22:44:15.173Z,38.97
2018-11-05T22:47:20.530Z,37.83
2018-11-05T22:50:25.959Z,37.17
2018-11-05T22:53:31.642Z,38.43
2018-11-05T22:56:37.038Z,38.43
2018-11-05T22:59:42.922Z,37.50
2018-11-05T23:02:53.594Z,36.73
2018-11-05T23:05:59.786Z,37.23
2018-11-05T23:09:07.018Z,37.23
2018-11-05T23:12:12.518Z,39.23
2018-11-05T23:15:18.236Z,37.10
2018-11-05T23:18:23.598Z,36.60
2018-11-05T23:21:29.063Z,37.67
2018-11-05T23:24:34.450Z,36.97
2018-11-05T23:27:40.153Z,38.40
2018-11-05T23:30:45.578Z,37.13
2018-11-05T23:33:50.937Z,39.43
2018-11-05T23:36:56.482Z,37.00
2018-11-05T23:40:01.858Z,37.80
2018-11-05T23:43:07.294Z,36.93
2018-11-05T23:46:12.662Z,37.67
2018-11-05T23:49:18.146Z,36.07
2018-11-05T23:52:23.962Z,37.57
2018-11-05T23:55:29.335Z,36.47
2018-11-05T23:58:34.704Z,36.97
